sensor_id;sensor_type;location;lat;lon;timestamp;P1;durP1;ratioP1;P2;durP2;ratioP2
23376;SDS011;14353;46.070;13.222;2023-05-10T00:01:58;1.75;;;1.55;;
23376;SDS011;14353;46.070;13.222;2023-05-10T00:04:24;1.40;;;1.30;;
23376;SDS011;14353;46.070;13.222;2023-05-10T00:06:52;1.50;;;1.40;;
23376;SDS011;14353;46.070;13.222;2023-05-10T00:09:18;1.90;;;1.67;;
23376;SDS011;14353;46.070;13.222;2023-05-10T00:11:44;3.88;;;1.65;;
23376;SDS011;14353;46.070;13.222;2023-05-10T00:14:11;2.50;;;1.83;;
23376;SDS011;14353;46.070;13.222;2023-05-10T00:16:37;2.15;;;1.55;;
23376;SDS011;14353;46.070;13.222;2023-05-10T00:19:02;1.70;;;1.60;;
23376;SDS011;14353;46.070;13.222;2023-05-10T00:21:28;2.92;;;1.60;;
23376;SDS011;14353;46.070;13.222;2023-05-10T00:23:54;1.65;;;1.55;;
23376;SDS011;14353;46.070;13.222;2023-05-10T00:26:20;1.70;;;1.60;;
23376;SDS011;14353;46.070;13.222;2023-05-10T00:28:46;2.05;;;1.60;;
23376;SDS011;14353;46.070;13.222;2023-05-10T00:31:12;1.60;;;1.50;;
23376;SDS011;14353;46.070;13.222;2023-05-10T00:33:37;1.70;;;1.60;;
23376;SDS011;14353;46.070;13.222;2023-05-10T00:36:03;1.77;;;1.60;;
23376;SDS011;14353;46.070;13.222;2023-05-10T00:38:32;1.65;;;1.55;;
23376;SDS011;14353;46.070;13.222;2023-05-10T00:40:58;1.65;;;1.55;;
23376;SDS011;14353;46.070;13.222;2023-05-10T00:43:23;1.67;;;1.58;;
23376;SDS011;14353;46.070;13.222;2023-05-10T00:45:49;2.00;;;1.80;;
23376;SDS011;14353;46.070;13.222;2023-05-10T00:48:15;1.70;;;1.58;;
23376;SDS011;14353;46.070;13.222;2023-05-10T00:50:41;1.80;;;1.60;;
23376;SDS011;14353;46.070;13.222;2023-05-10T00:53:07;1.63;;;1.52;;
23376;SDS011;14353;46.070;13.222;2023-05-10T00:55:33;1.95;;;1.60;;
23376;SDS011;14353;46.070;13.222;2023-05-10T00:57:59;1.60;;;1.50;;
23376;SDS011;14353;46.070;13.222;2023-05-10T01:00:26;1.67;;;1.58;;
23376;SDS011;14353;46.070;13.222;2023-05-10T01:02:53;2.58;;;1.50;;
23376;SDS011;14353;46.070;13.222;2023-05-10T01:05:19;1.70;;;1.60;;
23376;SDS011;14353;46.070;13.222;2023-05-10T01:07:45;1.75;;;1.63;;
23376;SDS011;14353;46.070;13.222;2023-05-10T01:10:10;1.60;;;1.50;;
23376;SDS011;14353;46.070;13.222;2023-05-10T01:12:37;1.50;;;1.40;;
23376;SDS011;14353;46.070;13.222;2023-05-10T01:15:06;1.90;;;1.58;;
23376;SDS011;14353;46.070;13.222;2023-05-10T01:17:33;1.50;;;1.35;;
23376;SDS011;14353;46.070;13.222;2023-05-10T01:20:00;2.13;;;1.80;;
23376;SDS011;14353;46.070;13.222;2023-05-10T01:33:01;1.50;;;1.40;;
23376;SDS011;14353;46.070;13.222;2023-05-10T01:35:37;1.50;;;1.40;;
23376;SDS011;14353;46.070;13.222;2023-05-10T01:43:45;2.05;;;1.65;;
23376;SDS011;14353;46.070;13.222;2023-05-10T01:46:31;1.77;;;1.50;;
23376;SDS011;14353;46.070;13.222;2023-05-10T01:49:01;1.80;;;1.23;;
23376;SDS011;14353;46.070;13.222;2023-05-10T01:51:35;1.73;;;1.63;;
23376;SDS011;14353;46.070;13.222;2023-05-10T01:54:07;1.85;;;1.60;;
23376;SDS011;14353;46.070;13.222;2023-05-10T01:56:35;1.40;;;1.30;;
23376;SDS011;14353;46.070;13.222;2023-05-10T01:59:05;1.45;;;1.35;;
23376;SDS011;14353;46.070;13.222;2023-05-10T02:01:36;3.72;;;1.40;;
23376;SDS011;14353;46.070;13.222;2023-05-10T02:04:03;1.50;;;1.40;;
23376;SDS011;14353;46.070;13.222;2023-05-10T02:06:31;1.60;;;1.50;;
23376;SDS011;14353;46.070;13.222;2023-05-10T02:09:00;1.30;;;1.20;;
23376;SDS011;14353;46.070;13.222;2023-05-10T02:11:27;1.90;;;1.40;;
23376;SDS011;14353;46.070;13.222;2023-05-10T02:13:54;1.30;;;1.20;;
23376;SDS011;14353;46.070;13.222;2023-05-10T02:16:23;1.38;;;1.27;;
23376;SDS011;14353;46.070;13.222;2023-05-10T02:18:51;1.65;;;1.55;;
23376;SDS011;14353;46.070;13.222;2023-05-10T02:21:17;2.65;;;1.40;;
23376;SDS011;14353;46.070;13.222;2023-05-10T02:23:45;1.30;;;1.20;;
23376;SDS011;14353;46.070;13.222;2023-05-10T02:26:14;1.63;;;1.52;;
23376;SDS011;14353;46.070;13.222;2023-05-10T02:28:41;1.40;;;1.30;;
23376;SDS011;14353;46.070;13.222;2023-05-10T02:31:08;1.73;;;1.48;;
23376;SDS011;14353;46.070;13.222;2023-05-10T02:33:36;1.75;;;1.58;;
23376;SDS011;14353;46.070;13.222;2023-05-10T02:36:04;2.13;;;1.50;;
23376;SDS011;14353;46.070;13.222;2023-05-10T02:38:31;1.63;;;1.40;;
23376;SDS011;14353;46.070;13.222;2023-05-10T02:40:59;1.55;;;1.40;;
23376;SDS011;14353;46.070;13.222;2023-05-10T02:43:26;2.33;;;1.38;;
23376;SDS011;14353;46.070;13.222;2023-05-10T02:45:55;1.75;;;1.60;;
23376;SDS011;14353;46.070;13.222;2023-05-10T02:48:20;1.70;;;1.35;;
23376;SDS011;14353;46.070;13.222;2023-05-10T02:50:46;1.52;;;1.42;;
23376;SDS011;14353;46.070;13.222;2023-05-10T02:53:18;1.58;;;1.48;;
23376;SDS011;14353;46.070;13.222;2023-05-10T02:55:54;1.40;;;1.30;;
23376;SDS011;14353;46.070;13.222;2023-05-10T02:58:24;1.55;;;1.38;;
23376;SDS011;14353;46.070;13.222;2023-05-10T03:00:50;1.40;;;1.30;;
23376;SDS011;14353;46.070;13.222;2023-05-10T03:03:16;1.70;;;1.38;;
23376;SDS011;14353;46.070;13.222;2023-05-10T03:05:41;1.60;;;1.50;;
23376;SDS011;14353;46.070;13.222;2023-05-10T03:08:07;1.58;;;1.48;;
23376;SDS011;14353;46.070;13.222;2023-05-10T03:10:33;2.15;;;1.58;;
23376;SDS011;14353;46.070;13.222;2023-05-10T03:13:13;1.75;;;1.40;;
23376;SDS011;14353;46.070;13.222;2023-05-10T03:15:58;1.40;;;1.30;;
23376;SDS011;14353;46.070;13.222;2023-05-10T03:21:10;1.70;;;1.60;;
23376;SDS011;14353;46.070;13.222;2023-05-10T03:23:47;1.50;;;1.40;;
23376;SDS011;14353;46.070;13.222;2023-05-10T03:26:26;2.20;;;1.30;;
23376;SDS011;14353;46.070;13.222;2023-05-10T03:28:53;1.60;;;1.45;;
23376;SDS011;14353;46.070;13.222;2023-05-10T03:31:20;1.50;;;1.33;;
23376;SDS011;14353;46.070;13.222;2023-05-10T03:33:47;1.40;;;1.30;;
23376;SDS011;14353;46.070;13.222;2023-05-10T03:36:13;1.75;;;1.50;;
23376;SDS011;14353;46.070;13.222;2023-05-10T03:38:39;1.38;;;1.27;;
23376;SDS011;14353;46.070;13.222;2023-05-10T03:41:05;1.40;;;1.30;;
23376;SDS011;14353;46.070;13.222;2023-05-10T03:43:31;1.35;;;1.25;;
23376;SDS011;14353;46.070;13.222;2023-05-10T03:45:56;2.15;;;1.50;;
23376;SDS011;14353;46.070;13.222;2023-05-10T03:48:22;1.55;;;1.45;;
23376;SDS011;14353;46.070;13.222;2023-05-10T03:50:48;1.58;;;1.48;;
23376;SDS011;14353;46.070;13.222;2023-05-10T03:53:14;1.40;;;1.30;;
23376;SDS011;14353;46.070;13.222;2023-05-10T03:55:40;1.40;;;1.25;;
23376;SDS011;14353;46.070;13.222;2023-05-10T03:58:06;1.50;;;1.40;;
23376;SDS011;14353;46.070;13.222;2023-05-10T04:00:32;1.70;;;1.40;;
23376;SDS011;14353;46.070;13.222;2023-05-10T04:02:58;1.35;;;1.25;;
23376;SDS011;14353;46.070;13.222;2023-05-10T04:05:23;1.50;;;1.40;;
23376;SDS011;14353;46.070;13.222;2023-05-10T04:07:49;1.40;;;1.30;;
23376;SDS011;14353;46.070;13.222;2023-05-10T04:10:16;2.08;;;1.40;;
23376;SDS011;14353;46.070;13.222;2023-05-10T04:12:42;1.30;;;1.20;;
23376;SDS011;14353;46.070;13.222;2023-05-10T04:15:08;1.40;;;1.30;;
23376;SDS011;14353;46.070;13.222;2023-05-10T04:17:34;1.38;;;1.27;;
23376;SDS011;14353;46.070;13.222;2023-05-10T04:19:59;1.40;;;1.30;;
23376;SDS011;14353;46.070;13.222;2023-05-10T04:22:25;1.58;;;1.48;;
23376;SDS011;14353;46.070;13.222;2023-05-10T04:24:52;1.42;;;1.33;;
23376;SDS011;14353;46.070;13.222;2023-05-10T04:27:18;1.33;;;1.20;;
23376;SDS011;14353;46.070;13.222;2023-05-10T04:29:43;1.50;;;1.40;;
23376;SDS011;14353;46.070;13.222;2023-05-10T04:32:09;1.52;;;1.42;;
23376;SDS011;14353;46.070;13.222;2023-05-10T04:34:35;1.33;;;1.23;;
23376;SDS011;14353;46.070;13.222;2023-05-10T04:37:01;1.30;;;1.20;;
23376;SDS011;14353;46.070;13.222;2023-05-10T04:39:27;1.30;;;1.20;;
23376;SDS011;14353;46.070;13.222;2023-05-10T04:41:52;1.63;;;1.35;;
23376;SDS011;14353;46.070;13.222;2023-05-10T04:44:18;1.60;;;1.40;;
23376;SDS011;14353;46.070;13.222;2023-05-10T04:46:47;1.40;;;1.30;;
23376;SDS011;14353;46.070;13.222;2023-05-10T04:49:13;1.48;;;1.30;;
23376;SDS011;14353;46.070;13.222;2023-05-10T04:51:39;1.55;;;1.40;;
23376;SDS011;14353;46.070;13.222;2023-05-10T04:54:05;1.52;;;1.42;;
23376;SDS011;14353;46.070;13.222;2023-05-10T04:56:30;1.38;;;1.27;;
23376;SDS011;14353;46.070;13.222;2023-05-10T04:58:56;1.40;;;1.30;;
23376;SDS011;14353;46.070;13.222;2023-05-10T05:01:21;1.38;;;1.27;;
23376;SDS011;14353;46.070;13.222;2023-05-10T05:03:48;1.30;;;1.20;;
23376;SDS011;14353;46.070;13.222;2023-05-10T05:06:13;1.55;;;1.38;;
23376;SDS011;14353;46.070;13.222;2023-05-10T05:08:39;1.52;;;1.42;;
23376;SDS011;14353;46.070;13.222;2023-05-10T05:11:05;1.33;;;1.20;;
23376;SDS011;14353;46.070;13.222;2023-05-10T05:13:30;1.42;;;1.33;;
23376;SDS011;14353;46.070;13.222;2023-05-10T05:15:56;1.55;;;1.45;;
23376;SDS011;14353;46.070;13.222;2023-05-10T05:18:22;1.35;;;1.25;;
23376;SDS011;14353;46.070;13.222;2023-05-10T05:20:47;1.60;;;1.50;;
23376;SDS011;14353;46.070;13.222;2023-05-10T05:23:13;1.35;;;1.25;;
23376;SDS011;14353;46.070;13.222;2023-05-10T05:25:39;1.40;;;1.30;;
23376;SDS011;14353;46.070;13.222;2023-05-10T05:28:04;1.60;;;1.50;;
23376;SDS011;14353;46.070;13.222;2023-05-10T05:30:30;1.50;;;1.30;;
23376;SDS011;14353;46.070;13.222;2023-05-10T05:32:55;1.63;;;1.35;;
23376;SDS011;14353;46.070;13.222;2023-05-10T05:35:21;2.60;;;1.48;;
23376;SDS011;14353;46.070;13.222;2023-05-10T05:37:47;2.97;;;1.63;;
23376;SDS011;14353;46.070;13.222;2023-05-10T05:40:13;1.70;;;1.50;;
23376;SDS011;14353;46.070;13.222;2023-05-10T05:42:39;3.92;;;1.70;;
23376;SDS011;14353;46.070;13.222;2023-05-10T05:45:04;2.78;;;1.63;;
23376;SDS011;14353;46.070;13.222;2023-05-10T05:47:31;11.40;;;2.00;;
23376;SDS011;14353;46.070;13.222;2023-05-10T05:49:57;6.40;;;1.83;;
23376;SDS011;14353;46.070;13.222;2023-05-10T05:52:22;12.25;;;2.20;;
23376;SDS011;14353;46.070;13.222;2023-05-10T05:54:48;8.40;;;2.00;;
23376;SDS011;14353;46.070;13.222;2023-05-10T05:57:14;5.25;;;1.70;;
23376;SDS011;14353;46.070;13.222;2023-05-10T05:59:39;9.13;;;1.98;;
23376;SDS011;14353;46.070;13.222;2023-05-10T06:02:09;6.97;;;1.80;;
23376;SDS011;14353;46.070;13.222;2023-05-10T06:04:34;5.88;;;1.80;;
23376;SDS011;14353;46.070;13.222;2023-05-10T06:07:01;8.52;;;2.05;;
23376;SDS011;14353;46.070;13.222;2023-05-10T06:09:29;7.43;;;2.00;;
23376;SDS011;14353;46.070;13.222;2023-05-10T06:11:58;3.83;;;1.77;;
23376;SDS011;14353;46.070;13.222;2023-05-10T06:14:34;8.43;;;1.92;;
23376;SDS011;14353;46.070;13.222;2023-05-10T06:17:05;5.00;;;2.08;;
23376;SDS011;14353;46.070;13.222;2023-05-10T06:19:36;8.35;;;2.22;;
23376;SDS011;14353;46.070;13.222;2023-05-10T06:22:03;5.47;;;2.03;;
23376;SDS011;14353;46.070;13.222;2023-05-10T06:24:29;6.95;;;2.25;;
23376;SDS011;14353;46.070;13.222;2023-05-10T06:26:55;7.20;;;2.15;;
23376;SDS011;14353;46.070;13.222;2023-05-10T06:29:20;3.83;;;1.80;;
23376;SDS011;14353;46.070;13.222;2023-05-10T06:31:46;5.22;;;1.90;;
23376;SDS011;14353;46.070;13.222;2023-05-10T06:34:12;4.22;;;1.95;;
23376;SDS011;14353;46.070;13.222;2023-05-10T06:36:38;5.70;;;2.25;;
23376;SDS011;14353;46.070;13.222;2023-05-10T06:39:04;3.63;;;1.90;;
23376;SDS011;14353;46.070;13.222;2023-05-10T06:41:30;5.03;;;2.08;;
23376;SDS011;14353;46.070;13.222;2023-05-10T06:43:56;4.30;;;2.20;;
23376;SDS011;14353;46.070;13.222;2023-05-10T06:46:21;4.10;;;2.17;;
23376;SDS011;14353;46.070;13.222;2023-05-10T06:48:47;3.45;;;2.20;;
23376;SDS011;14353;46.070;13.222;2023-05-10T06:51:13;3.60;;;2.13;;
23376;SDS011;14353;46.070;13.222;2023-05-10T06:53:38;6.60;;;2.20;;
23376;SDS011;14353;46.070;13.222;2023-05-10T06:56:04;7.43;;;2.28;;
23376;SDS011;14353;46.070;13.222;2023-05-10T06:58:30;4.63;;;1.98;;
23376;SDS011;14353;46.070;13.222;2023-05-10T07:01:04;3.47;;;2.03;;
23376;SDS011;14353;46.070;13.222;2023-05-10T07:03:30;5.05;;;2.40;;
23376;SDS011;14353;46.070;13.222;2023-05-10T07:06:02;5.88;;;2.17;;
23376;SDS011;14353;46.070;13.222;2023-05-10T07:08:31;5.35;;;2.28;;
23376;SDS011;14353;46.070;13.222;2023-05-10T07:11:01;4.20;;;2.13;;
23376;SDS011;14353;46.070;13.222;2023-05-10T07:13:29;3.60;;;2.30;;
23376;SDS011;14353;46.070;13.222;2023-05-10T07:15:56;3.78;;;2.30;;
23376;SDS011;14353;46.070;13.222;2023-05-10T07:18:22;4.63;;;2.50;;
23376;SDS011;14353;46.070;13.222;2023-05-10T07:20:48;5.72;;;2.42;;
23376;SDS011;14353;46.070;13.222;2023-05-10T07:23:14;7.38;;;2.33;;
23376;SDS011;14353;46.070;13.222;2023-05-10T07:25:40;4.68;;;2.30;;
23376;SDS011;14353;46.070;13.222;2023-05-10T07:28:05;4.95;;;2.20;;
23376;SDS011;14353;46.070;13.222;2023-05-10T07:30:31;3.38;;;2.47;;
23376;SDS011;14353;46.070;13.222;2023-05-10T07:32:57;4.78;;;2.15;;
23376;SDS011;14353;46.070;13.222;2023-05-10T07:35:22;3.95;;;2.03;;
23376;SDS011;14353;46.070;13.222;2023-05-10T07:37:48;6.20;;;2.30;;
23376;SDS011;14353;46.070;13.222;2023-05-10T07:40:14;2.75;;;1.98;;
23376;SDS011;14353;46.070;13.222;2023-05-10T07:42:39;4.07;;;2.10;;
23376;SDS011;14353;46.070;13.222;2023-05-10T07:45:05;3.17;;;2.00;;
23376;SDS011;14353;46.070;13.222;2023-05-10T07:47:31;2.90;;;2.00;;
23376;SDS011;14353;46.070;13.222;2023-05-10T07:49:57;4.47;;;2.20;;
23376;SDS011;14353;46.070;13.222;2023-05-10T07:52:23;4.95;;;2.10;;
23376;SDS011;14353;46.070;13.222;2023-05-10T07:54:48;3.42;;;2.15;;
23376;SDS011;14353;46.070;13.222;2023-05-10T07:57:15;4.55;;;2.05;;
23376;SDS011;14353;46.070;13.222;2023-05-10T07:59:42;4.43;;;2.38;;
23376;SDS011;14353;46.070;13.222;2023-05-10T08:02:09;3.05;;;2.00;;
23376;SDS011;14353;46.070;13.222;2023-05-10T08:04:35;2.60;;;1.85;;
23376;SDS011;14353;46.070;13.222;2023-05-10T08:07:01;6.55;;;2.10;;
23376;SDS011;14353;46.070;13.222;2023-05-10T08:09:26;2.67;;;2.20;;
23376;SDS011;14353;46.070;13.222;2023-05-10T08:11:52;5.63;;;1.85;;
23376;SDS011;14353;46.070;13.222;2023-05-10T08:14:20;3.22;;;2.28;;
23376;SDS011;14353;46.070;13.222;2023-05-10T08:16:46;3.70;;;1.92;;
23376;SDS011;14353;46.070;13.222;2023-05-10T08:19:12;5.05;;;2.20;;
23376;SDS011;14353;46.070;13.222;2023-05-10T08:21:38;2.25;;;1.77;;
23376;SDS011;14353;46.070;13.222;2023-05-10T08:24:05;3.30;;;2.00;;
23376;SDS011;14353;46.070;13.222;2023-05-10T08:26:32;6.47;;;1.98;;
23376;SDS011;14353;46.070;13.222;2023-05-10T08:28:58;4.57;;;2.22;;
23376;SDS011;14353;46.070;13.222;2023-05-10T08:31:24;3.42;;;2.05;;
23376;SDS011;14353;46.070;13.222;2023-05-10T08:33:49;4.30;;;2.00;;
23376;SDS011;14353;46.070;13.222;2023-05-10T08:36:16;4.78;;;2.30;;
23376;SDS011;14353;46.070;13.222;2023-05-10T08:38:46;8.85;;;2.20;;
23376;SDS011;14353;46.070;13.222;2023-05-10T08:41:21;3.08;;;1.90;;
23376;SDS011;14353;46.070;13.222;2023-05-10T08:43:53;5.30;;;1.90;;
23376;SDS011;14353;46.070;13.222;2023-05-10T08:46:20;3.28;;;1.98;;
23376;SDS011;14353;46.070;13.222;2023-05-10T08:48:48;7.25;;;2.67;;
23376;SDS011;14353;46.070;13.222;2023-05-10T08:51:18;7.53;;;2.80;;
23376;SDS011;14353;46.070;13.222;2023-05-10T08:53:47;15.38;;;2.90;;
23376;SDS011;14353;46.070;13.222;2023-05-10T08:56:13;9.27;;;3.20;;
23376;SDS011;14353;46.070;13.222;2023-05-10T08:58:40;15.27;;;3.40;;
23376;SDS011;14353;46.070;13.222;2023-05-10T09:01:06;7.55;;;3.10;;
23376;SDS011;14353;46.070;13.222;2023-05-10T09:03:33;16.65;;;3.40;;
23376;SDS011;14353;46.070;13.222;2023-05-10T09:06:00;14.07;;;3.28;;
23376;SDS011;14353;46.070;13.222;2023-05-10T09:08:26;13.10;;;3.28;;
23376;SDS011;14353;46.070;13.222;2023-05-10T09:10:52;13.57;;;3.10;;
23376;SDS011;14353;46.070;13.222;2023-05-10T09:13:21;12.07;;;3.25;;
23376;SDS011;14353;46.070;13.222;2023-05-10T09:15:48;8.75;;;3.10;;
23376;SDS011;14353;46.070;13.222;2023-05-10T09:18:14;8.90;;;3.08;;
23376;SDS011;14353;46.070;13.222;2023-05-10T09:20:40;10.02;;;2.60;;
23376;SDS011;14353;46.070;13.222;2023-05-10T09:23:06;13.43;;;3.10;;
23376;SDS011;14353;46.070;13.222;2023-05-10T09:25:32;11.02;;;3.08;;
23376;SDS011;14353;46.070;13.222;2023-05-10T09:27:58;12.75;;;3.05;;
23376;SDS011;14353;46.070;13.222;2023-05-10T09:30:25;10.60;;;2.85;;
23376;SDS011;14353;46.070;13.222;2023-05-10T09:32:53;4.53;;;2.60;;
23376;SDS011;14353;46.070;13.222;2023-05-10T09:35:21;7.20;;;2.92;;
23376;SDS011;14353;46.070;13.222;2023-05-10T09:37:49;14.50;;;3.08;;
23376;SDS011;14353;46.070;13.222;2023-05-10T09:40:17;6.30;;;2.55;;
23376;SDS011;14353;46.070;13.222;2023-05-10T09:43:17;12.15;;;3.35;;
23376;SDS011;14353;46.070;13.222;2023-05-10T09:45:36;12.48;;;3.47;;
23376;SDS011;14353;46.070;13.222;2023-05-10T09:48:02;8.73;;;3.40;;
23376;SDS011;14353;46.070;13.222;2023-05-10T09:50:29;7.53;;;3.35;;
23376;SDS011;14353;46.070;13.222;2023-05-10T09:52:56;8.10;;;3.33;;
23376;SDS011;14353;46.070;13.222;2023-05-10T09:55:40;7.72;;;3.20;;
23376;SDS011;14353;46.070;13.222;2023-05-10T09:58:09;9.20;;;3.60;;
23376;SDS011;14353;46.070;13.222;2023-05-10T10:00:36;5.97;;;3.40;;
23376;SDS011;14353;46.070;13.222;2023-05-10T10:03:03;7.90;;;3.30;;
23376;SDS011;14353;46.070;13.222;2023-05-10T10:05:34;7.90;;;3.65;;
23376;SDS011;14353;46.070;13.222;2023-05-10T10:08:02;9.15;;;3.55;;
23376;SDS011;14353;46.070;13.222;2023-05-10T10:10:31;8.45;;;3.63;;
23376;SDS011;14353;46.070;13.222;2023-05-10T10:12:58;16.02;;;3.80;;
23376;SDS011;14353;46.070;13.222;2023-05-10T10:15:25;13.48;;;4.32;;
23376;SDS011;14353;46.070;13.222;2023-05-10T10:17:51;10.35;;;3.70;;
23376;SDS011;14353;46.070;13.222;2023-05-10T10:20:19;10.93;;;3.92;;
23376;SDS011;14353;46.070;13.222;2023-05-10T10:22:48;6.57;;;3.95;;
23376;SDS011;14353;46.070;13.222;2023-05-10T10:25:14;7.68;;;3.92;;
23376;SDS011;14353;46.070;13.222;2023-05-10T10:36:01;6.78;;;3.80;;
23376;SDS011;14353;46.070;13.222;2023-05-10T10:47:01;7.15;;;4.15;;
23376;SDS011;14353;46.070;13.222;2023-05-10T10:52:24;6.68;;;4.20;;
23376;SDS011;14353;46.070;13.222;2023-05-10T10:57:25;10.02;;;3.85;;
23376;SDS011;14353;46.070;13.222;2023-05-10T10:59:53;8.85;;;3.92;;
23376;SDS011;14353;46.070;13.222;2023-05-10T11:07:57;10.90;;;3.78;;
23376;SDS011;14353;46.070;13.222;2023-05-10T11:10:24;10.93;;;3.72;;
23376;SDS011;14353;46.070;13.222;2023-05-10T11:13:01;10.88;;;4.15;;
23376;SDS011;14353;46.070;13.222;2023-05-10T11:15:28;10.20;;;3.70;;
23376;SDS011;14353;46.070;13.222;2023-05-10T11:18:00;12.73;;;3.50;;
23376;SDS011;14353;46.070;13.222;2023-05-10T11:21:01;7.00;;;3.58;;
23376;SDS011;14353;46.070;13.222;2023-05-10T11:25:57;7.80;;;3.42;;
23376;SDS011;14353;46.070;13.222;2023-05-10T11:28:23;5.72;;;3.53;;
23376;SDS011;14353;46.070;13.222;2023-05-10T11:30:51;5.93;;;3.67;;
23376;SDS011;14353;46.070;13.222;2023-05-10T11:33:17;6.68;;;3.30;;
23376;SDS011;14353;46.070;13.222;2023-05-10T11:35:44;7.45;;;3.40;;
23376;SDS011;14353;46.070;13.222;2023-05-10T11:38:11;5.53;;;3.25;;
23376;SDS011;14353;46.070;13.222;2023-05-10T11:40:37;7.65;;;3.47;;
23376;SDS011;14353;46.070;13.222;2023-05-10T11:43:04;4.03;;;2.90;;
23376;SDS011;14353;46.070;13.222;2023-05-10T11:45:33;4.63;;;3.08;;
23376;SDS011;14353;46.070;13.222;2023-05-10T11:48:00;5.90;;;3.20;;
23376;SDS011;14353;46.070;13.222;2023-05-10T11:50:27;4.88;;;3.15;;
23376;SDS011;14353;46.070;13.222;2023-05-10T11:52:54;3.60;;;2.95;;
23376;SDS011;14353;46.070;13.222;2023-05-10T11:55:21;5.63;;;2.85;;
23376;SDS011;14353;46.070;13.222;2023-05-10T11:57:51;10.45;;;2.90;;
23376;SDS011;14353;46.070;13.222;2023-05-10T12:00:17;5.03;;;3.00;;
23376;SDS011;14353;46.070;13.222;2023-05-10T12:02:43;8.20;;;3.28;;
23376;SDS011;14353;46.070;13.222;2023-05-10T12:05:09;5.28;;;3.05;;
23376;SDS011;14353;46.070;13.222;2023-05-10T12:07:35;6.93;;;3.35;;
23376;SDS011;14353;46.070;13.222;2023-05-10T12:10:11;8.48;;;3.40;;
23376;SDS011;14353;46.070;13.222;2023-05-10T12:12:45;6.72;;;3.03;;
23376;SDS011;14353;46.070;13.222;2023-05-10T12:15:21;6.40;;;3.38;;
23376;SDS011;14353;46.070;13.222;2023-05-10T12:20:21;4.40;;;3.00;;
23376;SDS011;14353;46.070;13.222;2023-05-10T12:22:49;6.38;;;3.13;;
23376;SDS011;14353;46.070;13.222;2023-05-10T12:25:17;7.10;;;3.67;;
23376;SDS011;14353;46.070;13.222;2023-05-10T12:27:47;6.38;;;3.20;;
23376;SDS011;14353;46.070;13.222;2023-05-10T12:30:27;7.80;;;2.90;;
23376;SDS011;14353;46.070;13.222;2023-05-10T12:32:59;6.18;;;3.17;;
23376;SDS011;14353;46.070;13.222;2023-05-10T12:35:45;5.32;;;3.03;;
23376;SDS011;14353;46.070;13.222;2023-05-10T12:38:27;9.18;;;3.50;;
23376;SDS011;14353;46.070;13.222;2023-05-10T12:41:03;11.70;;;3.47;;
23376;SDS011;14353;46.070;13.222;2023-05-10T12:43:31;6.47;;;3.20;;
23376;SDS011;14353;46.070;13.222;2023-05-10T12:45:57;8.55;;;3.50;;
23376;SDS011;14353;46.070;13.222;2023-05-10T12:48:23;7.28;;;3.40;;
23376;SDS011;14353;46.070;13.222;2023-05-10T12:50:49;6.85;;;3.05;;
23376;SDS011;14353;46.070;13.222;2023-05-10T12:53:15;6.47;;;3.17;;
23376;SDS011;14353;46.070;13.222;2023-05-10T12:55:42;8.57;;;3.53;;
23376;SDS011;14353;46.070;13.222;2023-05-10T12:58:08;10.60;;;3.15;;
23376;SDS011;14353;46.070;13.222;2023-05-10T13:00:34;9.20;;;3.10;;
23376;SDS011;14353;46.070;13.222;2023-05-10T13:03:00;9.20;;;3.50;;
23376;SDS011;14353;46.070;13.222;2023-05-10T13:05:25;4.40;;;3.10;;
23376;SDS011;14353;46.070;13.222;2023-05-10T13:07:51;4.97;;;3.50;;
23376;SDS011;14353;46.070;13.222;2023-05-10T13:10:17;8.00;;;3.83;;
23376;SDS011;14353;46.070;13.222;2023-05-10T13:12:42;8.05;;;3.50;;
23376;SDS011;14353;46.070;13.222;2023-05-10T13:15:08;7.55;;;3.78;;
23376;SDS011;14353;46.070;13.222;2023-05-10T13:17:34;8.18;;;3.65;;
23376;SDS011;14353;46.070;13.222;2023-05-10T13:20:00;7.68;;;3.88;;
23376;SDS011;14353;46.070;13.222;2023-05-10T13:22:26;8.73;;;3.83;;
23376;SDS011;14353;46.070;13.222;2023-05-10T13:24:51;6.45;;;3.78;;
23376;SDS011;14353;46.070;13.222;2023-05-10T13:27:17;10.10;;;3.72;;
23376;SDS011;14353;46.070;13.222;2023-05-10T13:29:43;8.13;;;3.80;;
23376;SDS011;14353;46.070;13.222;2023-05-10T13:32:08;5.93;;;3.63;;
23376;SDS011;14353;46.070;13.222;2023-05-10T13:34:34;6.22;;;3.65;;
23376;SDS011;14353;46.070;13.222;2023-05-10T13:37:00;10.40;;;3.95;;
23376;SDS011;14353;46.070;13.222;2023-05-10T13:39:26;6.60;;;3.60;;
23376;SDS011;14353;46.070;13.222;2023-05-10T13:41:52;5.10;;;3.65;;
23376;SDS011;14353;46.070;13.222;2023-05-10T13:44:19;7.75;;;3.30;;
23376;SDS011;14353;46.070;13.222;2023-05-10T13:46:45;10.15;;;3.97;;
23376;SDS011;14353;46.070;13.222;2023-05-10T13:49:11;7.20;;;3.45;;
23376;SDS011;14353;46.070;13.222;2023-05-10T13:51:37;6.47;;;3.60;;
23376;SDS011;14353;46.070;13.222;2023-05-10T13:54:03;5.03;;;3.42;;
23376;SDS011;14353;46.070;13.222;2023-05-10T13:56:28;5.78;;;3.72;;
23376;SDS011;14353;46.070;13.222;2023-05-10T13:58:56;3.97;;;3.20;;
23376;SDS011;14353;46.070;13.222;2023-05-10T14:01:23;4.65;;;3.67;;
23376;SDS011;14353;46.070;13.222;2023-05-10T14:03:49;4.95;;;3.58;;
23376;SDS011;14353;46.070;13.222;2023-05-10T14:06:14;5.97;;;3.55;;
23376;SDS011;14353;46.070;13.222;2023-05-10T14:08:40;7.57;;;3.67;;
23376;SDS011;14353;46.070;13.222;2023-05-10T14:11:06;4.15;;;3.17;;
23376;SDS011;14353;46.070;13.222;2023-05-10T14:13:32;6.00;;;3.60;;
23376;SDS011;14353;46.070;13.222;2023-05-10T14:15:58;9.52;;;3.60;;
23376;SDS011;14353;46.070;13.222;2023-05-10T14:18:25;4.93;;;3.17;;
23376;SDS011;14353;46.070;13.222;2023-05-10T14:20:54;7.15;;;3.45;;
23376;SDS011;14353;46.070;13.222;2023-05-10T14:23:21;3.97;;;3.50;;
23376;SDS011;14353;46.070;13.222;2023-05-10T14:25:51;4.00;;;3.40;;
23376;SDS011;14353;46.070;13.222;2023-05-10T14:28:17;6.35;;;3.55;;
23376;SDS011;14353;46.070;13.222;2023-05-10T14:30:43;7.78;;;3.58;;
23376;SDS011;14353;46.070;13.222;2023-05-10T14:33:09;5.90;;;3.65;;
23376;SDS011;14353;46.070;13.222;2023-05-10T14:35:35;5.05;;;3.08;;
23376;SDS011;14353;46.070;13.222;2023-05-10T14:38:02;4.05;;;3.22;;
23376;SDS011;14353;46.070;13.222;2023-05-10T14:40:28;6.20;;;3.65;;
23376;SDS011;14353;46.070;13.222;2023-05-10T14:42:54;9.00;;;3.38;;
23376;SDS011;14353;46.070;13.222;2023-05-10T14:45:21;3.70;;;3.17;;
23376;SDS011;14353;46.070;13.222;2023-05-10T14:47:48;4.38;;;3.50;;
23376;SDS011;14353;46.070;13.222;2023-05-10T14:50:14;3.60;;;3.20;;
23376;SDS011;14353;46.070;13.222;2023-05-10T14:52:41;5.13;;;3.30;;
23376;SDS011;14353;46.070;13.222;2023-05-10T14:55:07;6.28;;;3.58;;
23376;SDS011;14353;46.070;13.222;2023-05-10T14:57:33;5.07;;;3.53;;
23376;SDS011;14353;46.070;13.222;2023-05-10T14:59:59;4.43;;;3.10;;
23376;SDS011;14353;46.070;13.222;2023-05-10T15:02:25;5.35;;;3.17;;
23376;SDS011;14353;46.070;13.222;2023-05-10T15:04:51;4.88;;;3.30;;
23376;SDS011;14353;46.070;13.222;2023-05-10T15:07:16;4.45;;;3.35;;
23376;SDS011;14353;46.070;13.222;2023-05-10T15:09:43;3.50;;;3.20;;
23376;SDS011;14353;46.070;13.222;2023-05-10T15:12:09;3.67;;;3.15;;
23376;SDS011;14353;46.070;13.222;2023-05-10T15:14:35;4.70;;;3.00;;
23376;SDS011;14353;46.070;13.222;2023-05-10T15:17:01;4.80;;;3.03;;
23376;SDS011;14353;46.070;13.222;2023-05-10T15:19:27;5.78;;;3.45;;
23376;SDS011;14353;46.070;13.222;2023-05-10T15:21:54;5.95;;;3.40;;
23376;SDS011;14353;46.070;13.222;2023-05-10T15:24:20;4.80;;;3.45;;
23376;SDS011;14353;46.070;13.222;2023-05-10T15:26:46;4.00;;;3.58;;